sensor_id;sensor_type;location;lat;lon;timestamp;pressure;altitude;pressure_sealevel;temperature;humidity
41862;BME280;27537;57.134;-2.136;2023-04-21T00:01:55;102203.53;;;7.72;100.00
41862;BME280;27537;57.134;-2.136;2023-04-21T00:04:24;102239.97;;;7.98;100.00
41862;BME280;27537;57.134;-2.136;2023-04-21T00:06:51;102280.75;;;8.29;100.00
41862;BME280;27537;57.134;-2.136;2023-04-21T00:09:19;102206.88;;;8.08;100.00
41862;BME280;27537;57.134;-2.136;2023-04-21T00:11:46;102169.56;;;7.91;100.00
41862;BME280;27537;57.134;-2.136;2023-04-21T00:14:13;102173.88;;;7.96;100.00
41862;BME280;27537;57.134;-2.136;2023-04-21T00:16:40;102239.81;;;8.40;100.00
41862;BME280;27537;57.134;-2.136;2023-04-21T00:19:06;102213.75;;;8.29;100.00
41862;BME280;27537;57.134;-2.136;2023-04-21T00:21:34;102162.56;;;7.97;100.00
41862;BME280;27537;57.134;-2.136;2023-04-21T00:24:01;102173.81;;;8.13;100.00
41862;BME280;27537;57.134;-2.136;2023-04-21T00:26:27;102172.84;;;8.31;100.00
41862;BME280;27537;57.134;-2.136;2023-04-21T00:28:54;102193.78;;;8.25;100.00
41862;BME280;27537;57.134;-2.136;2023-04-21T00:31:21;102195.53;;;8.12;100.00
41862;BME280;27537;57.134;-2.136;2023-04-21T00:33:48;102222.44;;;8.28;100.00
41862;BME280;27537;57.134;-2.136;2023-04-21T00:36:15;102217.28;;;8.16;100.00
41862;BME280;27537;57.134;-2.136;2023-04-21T00:38:41;102192.94;;;8.14;100.00
41862;BME280;27537;57.134;-2.136;2023-04-21T00:41:08;102225.06;;;8.30;100.00
41862;BME280;27537;57.134;-2.136;2023-04-21T00:43:35;102207.75;;;8.07;100.00
41862;BME280;27537;57.134;-2.136;2023-04-21T00:46:02;102243.34;;;8.24;100.00
41862;BME280;27537;57.134;-2.136;2023-04-21T00:48:29;102223.34;;;8.20;100.00
41862;BME280;27537;57.134;-2.136;2023-04-21T00:50:56;102216.50;;;7.97;100.00
41862;BME280;27537;57.134;-2.136;2023-04-21T00:53:22;102190.44;;;7.75;100.00
41862;BME280;27537;57.134;-2.136;2023-04-21T00:55:49;102150.50;;;7.59;100.00
41862;BME280;27537;57.134;-2.136;2023-04-21T00:58:17;102184.38;;;7.72;100.00
41862;BME280;27537;57.134;-2.136;2023-04-21T01:00:43;102152.28;;;7.50;100.00
41862;BME280;27537;57.134;-2.136;2023-04-21T01:03:11;102162.72;;;7.50;100.00
41862;BME280;27537;57.134;-2.136;2023-04-21T01:05:38;102242.56;;;7.89;100.00
41862;BME280;27537;57.134;-2.136;2023-04-21T01:08:05;102121.94;;;7.24;100.00
41862;BME280;27537;57.134;-2.136;2023-04-21T01:10:32;102175.75;;;7.48;100.00
41862;BME280;27537;57.134;-2.136;2023-04-21T01:12:59;102202.66;;;7.70;100.00
41862;BME280;27537;57.134;-2.136;2023-04-21T01:15:26;102087.22;;;7.08;100.00
41862;BME280;27537;57.134;-2.136;2023-04-21T01:17:56;102189.63;;;7.70;100.00
41862;BME280;27537;57.134;-2.136;2023-04-21T01:20:23;102159.22;;;7.62;100.00
41862;BME280;27537;57.134;-2.136;2023-04-21T01:22:50;102160.06;;;7.68;100.00
41862;BME280;27537;57.134;-2.136;2023-04-21T01:25:17;102184.38;;;7.72;100.00
41862;BME280;27537;57.134;-2.136;2023-04-21T01:27:45;102163.56;;;7.49;100.00
41862;BME280;27537;57.134;-2.136;2023-04-21T01:30:12;102193.91;;;7.80;100.00
41862;BME280;27537;57.134;-2.136;2023-04-21T01:32:39;102168.72;;;7.75;100.00
41862;BME280;27537;57.134;-2.136;2023-04-21T01:35:06;102214.72;;;8.10;100.00
41862;BME280;27537;57.134;-2.136;2023-04-21T01:37:33;102168.69;;;7.84;100.00
41862;BME280;27537;57.134;-2.136;2023-04-21T01:40:03;102164.38;;;7.86;100.00
41862;BME280;27537;57.134;-2.136;2023-04-21T01:42:31;102217.22;;;8.27;100.00
41862;BME280;27537;57.134;-2.136;2023-04-21T01:44:59;102156.56;;;7.77;100.00
41862;BME280;27537;57.134;-2.136;2023-04-21T01:47:26;102185.19;;;7.92;100.00
41862;BME280;27537;57.134;-2.136;2023-04-21T01:49:53;102153.97;;;7.66;100.00
41862;BME280;27537;57.134;-2.136;2023-04-21T01:52:20;102150.53;;;7.53;100.00
41862;BME280;27537;57.134;-2.136;2023-04-21T01:54:47;102167.91;;;7.56;100.00
41862;BME280;27537;57.134;-2.136;2023-04-21T01:57:14;102156.66;;;7.48;100.00
41862;BME280;27537;57.134;-2.136;2023-04-21T01:59:42;102206.97;;;7.76;100.00
41862;BME280;27537;57.134;-2.136;2023-04-21T02:02:09;102162.72;;;7.50;100.00
41862;BME280;27537;57.134;-2.136;2023-04-21T02:04:36;102201.78;;;7.67;100.00
41862;BME280;27537;57.134;-2.136;2023-04-21T02:07:03;102159.25;;;7.45;100.00
41862;BME280;27537;57.134;-2.136;2023-04-21T02:09:30;102134.13;;;7.19;100.00
41862;BME280;27537;57.134;-2.136;2023-04-21T02:11:57;102188.78;;;7.48;100.00
41862;BME280;27537;57.134;-2.136;2023-04-21T02:14:24;102115.91;;;7.07;100.00
41862;BME280;27537;57.134;-2.136;2023-04-21T02:16:51;102161.03;;;7.22;100.00
41862;BME280;27537;57.134;-2.136;2023-04-21T02:19:18;102145.38;;;7.15;100.00
41862;BME280;27537;57.134;-2.136;2023-04-21T02:21:46;102108.94;;;6.76;100.00
41862;BME280;27537;57.134;-2.136;2023-04-21T02:24:13;102123.69;;;6.76;100.00
41862;BME280;27537;57.134;-2.136;2023-04-21T02:26:39;102180.13;;;7.21;100.00
41862;BME280;27537;57.134;-2.136;2023-04-21T02:29:06;102111.56;;;6.86;100.00
41862;BME280;27537;57.134;-2.136;2023-04-21T02:31:33;102164.50;;;7.08;100.00
41862;BME280;27537;57.134;-2.136;2023-04-21T02:34:15;102151.50;;;7.01;100.00
41862;BME280;27537;57.134;-2.136;2023-04-21T02:36:42;102155.81;;;7.13;100.00
41862;BME280;27537;57.134;-2.136;2023-04-21T02:39:09;102084.66;;;6.79;100.00
41862;BME280;27537;57.134;-2.136;2023-04-21T02:41:35;102038.69;;;6.49;100.00
41862;BME280;27537;57.134;-2.136;2023-04-21T02:44:02;102115.00;;;6.94;100.00
41862;BME280;27537;57.134;-2.136;2023-04-21T02:46:29;102134.97;;;7.12;100.00
41862;BME280;27537;57.134;-2.136;2023-04-21T02:48:56;102063.81;;;6.60;100.00
41862;BME280;27537;57.134;-2.136;2023-04-21T02:51:23;102079.47;;;6.71;100.00
41862;BME280;27537;57.134;-2.136;2023-04-21T02:53:50;102096.81;;;6.91;100.00
41862;BME280;27537;57.134;-2.136;2023-04-21T02:56:17;102136.72;;;7.02;100.00
41862;BME280;27537;57.134;-2.136;2023-04-21T02:58:43;102121.09;;;6.73;100.00
41862;BME280;27537;57.134;-2.136;2023-04-21T03:01:11;102148.88;;;6.83;100.00
41862;BME280;27537;57.134;-2.136;2023-04-21T03:03:38;102085.50;;;6.55;100.00
41862;BME280;27537;57.134;-2.136;2023-04-21T03:06:05;102119.34;;;6.81;100.00
41862;BME280;27537;57.134;-2.136;2023-04-21T03:08:32;102081.19;;;6.54;100.00
41862;BME280;27537;57.134;-2.136;2023-04-21T03:10:59;102079.44;;;6.51;100.00
41862;BME280;27537;57.134;-2.136;2023-04-21T03:13:26;102122.81;;;6.60;100.00
41862;BME280;27537;57.134;-2.136;2023-04-21T03:15:53;102113.28;;;6.63;100.00
41862;BME280;27537;57.134;-2.136;2023-04-21T03:18:19;102075.97;;;6.38;100.00
41862;BME280;27537;57.134;-2.136;2023-04-21T03:20:46;102053.38;;;6.17;100.00
41862;BME280;27537;57.134;-2.136;2023-04-21T03:23:13;102026.50;;;6.07;100.00
41862;BME280;27537;57.134;-2.136;2023-04-21T03:25:40;102105.47;;;6.54;100.00
41862;BME280;27537;57.134;-2.136;2023-04-21T03:28:07;102077.72;;;6.39;100.00
41862;BME280;27537;57.134;-2.136;2023-04-21T03:30:34;102095.91;;;6.44;100.00
41862;BME280;27537;57.134;-2.136;2023-04-21T03:33:00;102092.41;;;6.26;100.00
41862;BME280;27537;57.134;-2.136;2023-04-21T03:35:27;102151.47;;;6.68;100.00
41862;BME280;27537;57.134;-2.136;2023-04-21T03:37:54;102049.91;;;6.15;100.00
41862;BME280;27537;57.134;-2.136;2023-04-21T03:40:21;102110.66;;;6.45;100.00
41862;BME280;27537;57.134;-2.136;2023-04-21T03:42:48;102134.09;;;6.63;100.00
41862;BME280;27537;57.134;-2.136;2023-04-21T03:45:15;102060.31;;;6.07;100.00
41862;BME280;27537;57.134;-2.136;2023-04-21T03:47:42;102083.72;;;6.14;100.00
41862;BME280;27537;57.134;-2.136;2023-04-21T03:50:08;102017.75;;;5.87;100.00
41862;BME280;27537;57.134;-2.136;2023-04-21T03:52:35;102079.44;;;6.33;100.00
41862;BME280;27537;57.134;-2.136;2023-04-21T03:55:02;102108.94;;;6.52;100.00
41862;BME280;27537;57.134;-2.136;2023-04-21T03:57:30;102052.50;;;6.07;100.00
41862;BME280;27537;57.134;-2.136;2023-04-21T03:59:57;102067.25;;;6.04;100.00
41862;BME280;27537;57.134;-2.136;2023-04-21T04:02:23;102056.81;;;5.99;100.00
41862;BME280;27537;57.134;-2.136;2023-04-21T04:04:51;102098.47;;;6.22;100.00
41862;BME280;27537;57.134;-2.136;2023-04-21T04:07:18;102120.16;;;6.27;100.00
41862;BME280;27537;57.134;-2.136;2023-04-21T04:09:45;102051.56;;;5.95;100.00
41862;BME280;27537;57.134;-2.136;2023-04-21T04:12:12;102120.19;;;6.31;100.00
41862;BME280;27537;57.134;-2.136;2023-04-21T04:14:38;102046.34;;;5.87;100.00
41862;BME280;27537;57.134;-2.136;2023-04-21T04:17:05;102035.06;;;5.77;100.00
41862;BME280;27537;57.134;-2.136;2023-04-21T04:19:32;102088.91;;;6.06;100.00
41862;BME280;27537;57.134;-2.136;2023-04-21T04:21:59;102041.13;;;5.85;100.00
41862;BME280;27537;57.134;-2.136;2023-04-21T04:24:27;102095.00;;;6.20;100.00
41862;BME280;27537;57.134;-2.136;2023-04-21T04:26:54;102000.38;;;5.61;100.00
41862;BME280;27537;57.134;-2.136;2023-04-21T04:29:21;102055.88;;;5.86;100.00
41862;BME280;27537;57.134;-2.136;2023-04-21T04:31:49;102038.53;;;5.85;100.00
41862;BME280;27537;57.134;-2.136;2023-04-21T04:34:16;102011.59;;;5.59;100.00
41862;BME280;27537;57.134;-2.136;2023-04-21T04:36:44;101999.44;;;5.50;100.00
41862;BME280;27537;57.134;-2.136;2023-04-21T04:39:11;102079.25;;;5.83;100.00
41862;BME280;27537;57.134;-2.136;2023-04-21T04:41:37;102054.09;;;5.75;100.00
41862;BME280;27537;57.134;-2.136;2023-04-21T04:44:04;102076.63;;;5.79;100.00
41862;BME280;27537;57.134;-2.136;2023-04-21T04:46:31;102074.94;;;5.87;100.00
41862;BME280;27537;57.134;-2.136;2023-04-21T04:49:01;102051.47;;;5.70;100.00
41862;BME280;27537;57.134;-2.136;2023-04-21T04:51:28;102052.34;;;5.74;100.00
41862;BME280;27537;57.134;-2.136;2023-04-21T04:53:55;102044.50;;;5.55;100.00
41862;BME280;27537;57.134;-2.136;2023-04-21T04:56:22;102013.28;;;5.46;100.00
41862;BME280;27537;57.134;-2.136;2023-04-21T04:58:49;102056.69;;;5.75;100.00
41862;BME280;27537;57.134;-2.136;2023-04-21T05:01:16;102047.13;;;5.66;100.00
41862;BME280;27537;57.134;-2.136;2023-04-21T05:03:45;102107.09;;;6.06;100.00
41862;BME280;27537;57.134;-2.136;2023-04-21T05:06:12;102086.22;;;5.90;100.00
41862;BME280;27537;57.134;-2.136;2023-04-21T05:08:39;102074.91;;;5.82;100.00
41862;BME280;27537;57.134;-2.136;2023-04-21T05:11:09;102036.75;;;5.61;100.00
41862;BME280;27537;57.134;-2.136;2023-04-21T05:13:36;102059.31;;;5.76;100.00
41862;BME280;27537;57.134;-2.136;2023-04-21T05:16:06;102084.44;;;5.76;100.00
41862;BME280;27537;57.134;-2.136;2023-04-21T05:18:33;102044.47;;;5.52;100.00
41862;BME280;27537;57.134;-2.136;2023-04-21T05:21:00;102108.81;;;5.99;100.00
41862;BME280;27537;57.134;-2.136;2023-04-21T05:23:27;102109.69;;;6.03;100.00
41862;BME280;27537;57.134;-2.136;2023-04-21T05:25:53;102077.53;;;5.84;100.00
41862;BME280;27537;57.134;-2.136;2023-04-21T05:28:20;102098.41;;;5.98;100.00
41862;BME280;27537;57.134;-2.136;2023-04-21T05:30:48;102083.63;;;5.90;100.00
41862;BME280;27537;57.134;-2.136;2023-04-21T05:33:17;102087.00;;;5.69;100.00
41862;BME280;27537;57.134;-2.136;2023-04-21T05:35:45;102048.84;;;5.59;100.00
41862;BME280;27537;57.134;-2.136;2023-04-21T05:38:11;102044.50;;;5.54;100.00
41862;BME280;27537;57.134;-2.136;2023-04-21T05:40:38;102080.13;;;5.85;100.00
41862;BME280;27537;57.134;-2.136;2023-04-21T05:43:05;102065.41;;;5.84;100.00
41862;BME280;27537;57.134;-2.136;2023-04-21T05:45:38;102053.25;;;5.74;100.00
41862;BME280;27537;57.134;-2.136;2023-04-21T05:48:05;102078.47;;;5.98;100.00
41862;BME280;27537;57.134;-2.136;2023-04-21T05:50:32;102029.84;;;5.71;100.00
41862;BME280;27537;57.134;-2.136;2023-04-21T05:53:01;102051.53;;;5.87;100.00
41862;BME280;27537;57.134;-2.136;2023-04-21T05:55:28;102090.69;;;6.24;100.00
41862;BME280;27537;57.134;-2.136;2023-04-21T05:57:55;102062.94;;;6.17;100.00
41862;BME280;27537;57.134;-2.136;2023-04-21T06:00:21;102024.69;;;5.83;100.00
41862;BME280;27537;57.134;-2.136;2023-04-21T06:02:48;102036.00;;;5.99;100.00
41862;BME280;27537;57.134;-2.136;2023-04-21T06:05:15;102082.03;;;6.34;100.00
41862;BME280;27537;57.134;-2.136;2023-04-21T06:07:42;102057.69;;;6.09;100.00
41862;BME280;27537;57.134;-2.136;2023-04-21T06:10:10;102056.00;;;6.26;100.00
41862;BME280;27537;57.134;-2.136;2023-04-21T06:12:37;102021.31;;;6.06;100.00
41862;BME280;27537;57.134;-2.136;2023-04-21T06:15:04;102019.50;;;5.93;100.00
41862;BME280;27537;57.134;-2.136;2023-04-21T06:17:31;102031.56;;;5.75;100.00
41862;BME280;27537;57.134;-2.136;2023-04-21T06:19:58;101986.50;;;5.64;100.00
41862;BME280;27537;57.134;-2.136;2023-04-21T06:22:26;102030.75;;;5.87;100.00
41862;BME280;27537;57.134;-2.136;2023-04-21T06:24:53;101986.53;;;5.75;100.00
41862;BME280;27537;57.134;-2.136;2023-04-21T06:27:20;102044.72;;;6.34;100.00
41862;BME280;27537;57.134;-2.136;2023-04-21T06:29:47;102015.25;;;6.36;100.00
41862;BME280;27537;57.134;-2.136;2023-04-21T06:32:13;102001.38;;;6.50;100.00
41862;BME280;27537;57.134;-2.136;2023-04-21T06:34:40;102034.09;;;7.58;100.00
41862;BME280;27537;57.134;-2.136;2023-04-21T06:37:07;101999.59;;;8.57;100.00
41862;BME280;27537;57.134;-2.136;2023-04-21T06:39:34;102043.28;;;9.26;100.00
41862;BME280;27537;57.134;-2.136;2023-04-21T06:42:00;102034.59;;;9.91;100.00
41862;BME280;27537;57.134;-2.136;2023-04-21T06:44:28;102069.00;;;10.27;100.00
41862;BME280;27537;57.134;-2.136;2023-04-21T06:46:55;102032.63;;;10.66;100.00
41862;BME280;27537;57.134;-2.136;2023-04-21T06:49:22;102026.50;;;11.14;100.00
41862;BME280;27537;57.134;-2.136;2023-04-21T06:51:48;102047.72;;;11.45;100.00
41862;BME280;27537;57.134;-2.136;2023-04-21T06:54:15;102043.69;;;11.72;100.00
41862;BME280;27537;57.134;-2.136;2023-04-21T06:56:42;102005.59;;;11.11;100.00
41862;BME280;27537;57.134;-2.136;2023-04-21T06:59:09;102046.16;;;10.90;100.00
41862;BME280;27537;57.134;-2.136;2023-04-21T07:01:35;102077.25;;;11.10;100.00
41862;BME280;27537;57.134;-2.136;2023-04-21T07:04:02;102017.41;;;10.85;100.00
41862;BME280;27537;57.134;-2.136;2023-04-21T07:06:33;102017.00;;;11.08;100.00
41862;BME280;27537;57.134;-2.136;2023-04-21T07:09:00;102049.56;;;11.40;100.00
41862;BME280;27537;57.134;-2.136;2023-04-21T07:11:26;102016.66;;;11.69;100.00
41862;BME280;27537;57.134;-2.136;2023-04-21T07:13:54;102046.25;;;12.14;100.00
41862;BME280;27537;57.134;-2.136;2023-04-21T07:16:21;102069.63;;;12.63;100.00
41862;BME280;27537;57.134;-2.136;2023-04-21T07:18:48;102013.88;;;12.84;100.00
41862;BME280;27537;57.134;-2.136;2023-04-21T07:21:14;102045.25;;;12.90;100.00
41862;BME280;27537;57.134;-2.136;2023-04-21T07:23:41;102056.84;;;12.83;100.00
41862;BME280;27537;57.134;-2.136;2023-04-21T07:26:08;102025.63;;;13.04;100.00
41862;BME280;27537;57.134;-2.136;2023-04-21T07:28:35;102033.88;;;13.54;100.00
41862;BME280;27537;57.134;-2.136;2023-04-21T07:31:02;102033.81;;;13.85;100.00
41862;BME280;27537;57.134;-2.136;2023-04-21T07:33:30;102005.44;;;13.67;100.00
41862;BME280;27537;57.134;-2.136;2023-04-21T07:35:56;102024.44;;;14.05;100.00
41862;BME280;27537;57.134;-2.136;2023-04-21T07:38:23;102023.28;;;13.85;100.00
41862;BME280;27537;57.134;-2.136;2023-04-21T07:40:50;102046.91;;;13.89;100.00
41862;BME280;27537;57.134;-2.136;2023-04-21T07:43:17;101996.66;;;13.66;100.00
41862;BME280;27537;57.134;-2.136;2023-04-21T07:45:45;101996.28;;;14.07;100.00
41862;BME280;27537;57.134;-2.136;2023-04-21T07:48:12;102001.75;;;13.73;100.00
41862;BME280;27537;57.134;-2.136;2023-04-21T07:50:39;102055.13;;;13.78;100.00
41862;BME280;27537;57.134;-2.136;2023-04-21T07:53:06;102039.28;;;14.08;100.00
41862;BME280;27537;57.134;-2.136;2023-04-21T07:55:33;102020.06;;;14.04;100.00
41862;BME280;27537;57.134;-2.136;2023-04-21T07:58:05;102014.53;;;14.13;100.00
41862;BME280;27537;57.134;-2.136;2023-04-21T08:00:32;102031.16;;;14.15;100.00
41862;BME280;27537;57.134;-2.136;2023-04-21T08:02:58;101994.84;;;13.68;100.00
41862;BME280;27537;57.134;-2.136;2023-04-21T08:05:26;102025.41;;;13.74;100.00
41862;BME280;27537;57.134;-2.136;2023-04-21T08:07:58;101993.81;;;13.74;100.00
41862;BME280;27537;57.134;-2.136;2023-04-21T08:10:25;102004.19;;;14.34;100.00
41862;BME280;27537;57.134;-2.136;2023-04-21T08:12:52;101992.59;;;14.39;100.00
41862;BME280;27537;57.134;-2.136;2023-04-21T08:15:19;102015.09;;;13.95;100.00
41862;BME280;27537;57.134;-2.136;2023-04-21T08:17:45;102034.38;;;14.23;100.00
41862;BME280;27537;57.134;-2.136;2023-04-21T08:20:12;102015.44;;;14.12;100.00
41862;BME280;27537;57.134;-2.136;2023-04-21T08:22:39;102033.06;;;14.65;100.00
41862;BME280;27537;57.134;-2.136;2023-04-21T08:25:07;101995.41;;;14.35;100.00
41862;BME280;27537;57.134;-2.136;2023-04-21T08:27:36;102029.38;;;14.69;100.00
41862;BME280;27537;57.134;-2.136;2023-04-21T08:30:04;101984.81;;;14.36;100.00
41862;BME280;27537;57.134;-2.136;2023-04-21T08:32:31;101971.78;;;14.57;100.00
41862;BME280;27537;57.134;-2.136;2023-04-21T08:34:58;101976.09;;;14.34;100.00
41862;BME280;27537;57.134;-2.136;2023-04-21T08:37:24;102008.56;;;14.35;100.00
41862;BME280;27537;57.134;-2.136;2023-04-21T08:39:51;101998.63;;;14.43;100.00
41862;BME280;27537;57.134;-2.136;2023-04-21T08:42:20;102020.88;;;14.88;100.00
41862;BME280;27537;57.134;-2.136;2023-04-21T08:44:46;102044.16;;;15.00;100.00
41862;BME280;27537;57.134;-2.136;2023-04-21T08:47:14;102036.41;;;14.95;100.00
41862;BME280;27537;57.134;-2.136;2023-04-21T08:49:41;102003.63;;;14.77;100.00
41862;BME280;27537;57.134;-2.136;2023-04-21T08:52:12;102007.78;;;14.59;100.00
41862;BME280;27537;57.134;-2.136;2023-04-21T08:54:40;102022.13;;;14.76;100.00
41862;BME280;27537;57.134;-2.136;2023-04-21T08:57:06;102012.88;;;14.64;100.00
41862;BME280;27537;57.134;-2.136;2023-04-21T08:59:41;101969.34;;;14.52;100.00
41862;BME280;27537;57.134;-2.136;2023-04-21T09:04:42;102048.66;;;15.22;100.00
41862;BME280;27537;57.134;-2.136;2023-04-21T09:07:09;102027.78;;;14.90;100.00
41862;BME280;27537;57.134;-2.136;2023-04-21T09:09:51;102003.75;;;13.93;100.00
41862;BME280;27537;57.134;-2.136;2023-04-21T09:12:18;102024.91;;;14.44;100.00
41862;BME280;27537;57.134;-2.136;2023-04-21T09:14:45;101994.41;;;14.64;100.00
41862;BME280;27537;57.134;-2.136;2023-04-21T09:17:14;101968.63;;;14.47;100.00
41862;BME280;27537;57.134;-2.136;2023-04-21T09:19:42;102022.94;;;14.78;100.00
41862;BME280;27537;57.134;-2.136;2023-04-21T09:22:13;102016.28;;;14.93;100.00
41862;BME280;27537;57.134;-2.136;2023-04-21T09:24:48;102007.72;;;14.34;100.00
41862;BME280;27537;57.134;-2.136;2023-04-21T09:27:15;102001.72;;;15.06;100.00
41862;BME280;27537;57.134;-2.136;2023-04-21T09:29:45;102013.34;;;15.49;100.00
41862;BME280;27537;57.134;-2.136;2023-04-21T09:32:17;102003.66;;;15.01;92.77
41862;BME280;27537;57.134;-2.136;2023-04-21T09:34:45;101951.56;;;14.84;93.51
41862;BME280;27537;57.134;-2.136;2023-04-21T09:37:13;101986.63;;;14.86;89.29
41862;BME280;27537;57.134;-2.136;2023-04-21T09:39:45;101996.34;;;15.33;89.12
41862;BME280;27537;57.134;-2.136;2023-04-21T09:42:33;101974.44;;;15.31;86.01
41862;BME280;27537;57.134;-2.136;2023-04-21T09:45:06;102013.69;;;15.64;86.21
41862;BME280;27537;57.134;-2.136;2023-04-21T09:47:57;102003.28;;;15.83;80.58
41862;BME280;27537;57.134;-2.136;2023-04-21T09:50:25;101983.09;;;15.34;78.57
41862;BME280;27537;57.134;-2.136;2023-04-21T09:53:15;101997.53;;;15.00;72.07
41862;BME280;27537;57.134;-2.136;2023-04-21T09:55:46;101932.44;;;14.52;75.03
41862;BME280;27537;57.134;-2.136;2023-04-21T09:58:15;101962.56;;;15.19;75.81
41862;BME280;27537;57.134;-2.136;2023-04-21T10:00:45;101993.16;;;15.70;73.89
41862;BME280;27537;57.134;-2.136;2023-04-21T10:03:13;101931.13;;;15.36;71.93
41862;BME280;27537;57.134;-2.136;2023-04-21T10:05:42;101942.97;;;15.03;71.25
41862;BME280;27537;57.134;-2.136;2023-04-21T10:08:10;101934.31;;;14.99;65.78
41862;BME280;27537;57.134;-2.136;2023-04-21T10:10:38;101940.06;;;14.85;66.82
41862;BME280;27537;57.134;-2.136;2023-04-21T10:13:05;101938.25;;;15.11;66.53
41862;BME280;27537;57.134;-2.136;2023-04-21T10:15:40;101973.19;;;15.41;69.05
41862;BME280;27537;57.134;-2.136;2023-04-21T10:21:02;101966.00;;;15.67;66.89
41862;BME280;27537;57.134;-2.136;2023-04-21T10:23:32;101964.25;;;15.67;62.94
41862;BME280;27537;57.134;-2.136;2023-04-21T10:26:12;101944.09;;;15.65;62.80
41862;BME280;27537;57.134;-2.136;2023-04-21T10:28:43;101958.94;;;15.91;65.49
41862;BME280;27537;57.134;-2.136;2023-04-21T10:31:21;101955.72;;;15.83;61.80
41862;BME280;27537;57.134;-2.136;2023-04-21T10:44:50;101945.72;;;15.69;59.72
41862;BME280;27537;57.134;-2.136;2023-04-21T10:50:30;101928.53;;;15.35;56.93
41862;BME280;27537;57.134;-2.136;2023-04-21T10:53:08;101862.97;;;15.02;56.84
41862;BME280;27537;57.134;-2.136;2023-04-21T10:55:35;101898.72;;;15.33;57.29
41862;BME280;27537;57.134;-2.136;2023-04-21T10:58:04;101920.97;;;15.93;57.28
41862;BME280;27537;57.134;-2.136;2023-04-21T11:00:32;101891.38;;;15.85;55.68
41862;BME280;27537;57.134;-2.136;2023-04-21T11:03:00;101866.00;;;15.15;53.18
41862;BME280;27537;57.134;-2.136;2023-04-21T11:05:39;101924.56;;;15.47;52.42
41862;BME280;27537;57.134;-2.136;2023-04-21T11:08:09;101896.06;;;15.56;52.38
41862;BME280;27537;57.134;-2.136;2023-04-21T11:10:51;101880.19;;;15.34;51.21
41862;BME280;27537;57.134;-2.136;2023-04-21T11:13:27;101837.97;;;15.34;50.66
41862;BME280;27537;57.134;-2.136;2023-04-21T11:16:06;101843.78;;;15.65;50.20
41862;BME280;27537;57.134;-2.136;2023-04-21T11:18:42;101899.63;;;16.20;49.80
41862;BME280;27537;57.134;-2.136;2023-04-21T11:21:14;101847.47;;;15.61;48.84
41862;BME280;27537;57.134;-2.136;2023-04-21T11:23:53;101869.41;;;15.85;47.71
41862;BME280;27537;57.134;-2.136;2023-04-21T11:26:34;101896.84;;;16.03;47.88
41862;BME280;27537;57.134;-2.136;2023-04-21T11:29:05;101887.44;;;16.37;47.92
41862;BME280;27537;57.134;-2.136;2023-04-21T11:31:33;101879.72;;;16.32;47.73
41862;BME280;27537;57.134;-2.136;2023-04-21T11:34:01;101866.91;;;16.43;46.48
41862;BME280;27537;57.134;-2.136;2023-04-21T11:36:39;101863.38;;;16.63;47.24
41862;BME280;27537;57.134;-2.136;2023-04-21T11:39:08;101847.44;;;16.65;46.52
41862;BME280;27537;57.134;-2.136;2023-04-21T11:41:39;101848.13;;;16.49;47.28
41862;BME280;27537;57.134;-2.136;2023-04-21T11:44:07;101825.22;;;16.09;46.33
41862;BME280;27537;57.134;-2.136;2023-04-21T11:46:44;101828.59;;;16.33;45.94
41862;BME280;27537;57.134;-2.136;2023-04-21T11:49:14;101863.47;;;16.81;45.80
41862;BME280;27537;57.134;-2.136;2023-04-21T11:51:43;101862.66;;;16.39;45.36
41862;BME280;27537;57.134;-2.136;2023-04-21T11:54:11;101810.69;;;15.99;43.54
41862;BME280;27537;57.134;-2.136;2023-04-21T11:56:44;101809.00;;;15.98;42.83
41862;BME280;27537;57.134;-2.136;2023-04-21T11:59:14;101753.41;;;15.58;43.84
41862;BME280;27537;57.134;-2.136;2023-04-21T12:01:45;101791.88;;;15.86;43.68
41862;BME280;27537;57.134;-2.136;2023-04-21T12:04:14;101795.84;;;15.96;42.94
41862;BME280;27537;57.134;-2.136;2023-04-21T12:06:44;101849.31;;;16.42;43.03
41862;BME280;27537;57.134;-2.136;2023-04-21T12:09:19;101806.91;;;16.25;43.58
41862;BME280;27537;57.134;-2.136;2023-04-21T12:11:47;101848.41;;;16.23;43.93
41862;BME280;27537;57.134;-2.136;2023-04-21T12:14:17;101802.41;;;16.08;44.42
41862;BME280;27537;57.134;-2.136;2023-04-21T12:16:53;101845.84;;;16.21;44.22
41862;BME280;27537;57.134;-2.136;2023-04-21T12:19:22;101809.97;;;15.95;43.18
41862;BME280;27537;57.134;-2.136;2023-04-21T12:21:54;101839.75;;;16.40;44.49
41862;BME280;27537;57.134;-2.136;2023-04-21T12:24:21;101776.16;;;15.83;42.35
41862;BME280;27537;57.134;-2.136;2023-04-21T12:26:48;101814.47;;;16.13;41.83
41862;BME280;27537;57.134;-2.136;2023-04-21T12:29:15;101786.13;;;15.97;42.70
41862;BME280;27537;57.134;-2.136;2023-04-21T12:31:42;101758.09;;;15.72;42.78
41862;BME280;27537;57.134;-2.136;2023-04-21T12:34:09;101790.38;;;16.01;44.66
41862;BME280;27537;57.134;-2.136;2023-04-21T12:36:36;101778.56;;;15.89;45.42
41862;BME280;27537;57.134;-2.136;2023-04-21T12:39:04;101774.53;;;16.01;45.09
41862;BME280;27537;57.134;-2.136;2023-04-21T12:41:31;101754.72;;;15.90;43.13
41862;BME280;27537;57.134;-2.136;2023-04-21T12:44:00;101815.31;;;16.35;43.54
41862;BME280;27537;57.134;-2.136;2023-04-21T12:46:27;101747.94;;;15.85;42.31
41862;BME280;27537;57.134;-2.136;2023-04-21T12:48:54;101780.25;;;16.10;42.33
41862;BME280;27537;57.134;-2.136;2023-04-21T12:51:21;101740.09;;;15.61;44.41
41862;BME280;27537;57.134;-2.136;2023-04-21T12:53:48;101785.22;;;15.98;42.84
41862;BME280;27537;57.134;-2.136;2023-04-21T12:56:15;101753.72;;;15.93;43.41
41862;BME280;27537;57.134;-2.136;2023-04-21T12:58:42;101753.69;;;16.13;45.62
41862;BME280;27537;57.134;-2.136;2023-04-21T13:01:08;101743.72;;;16.20;44.77
41862;BME280;27537;57.134;-2.136;2023-04-21T13:03:37;101749.16;;;16.36;45.15